createdAt,value
2022-11-26T00:01:44.033Z,2.55
2022-11-26T00:04:45.499Z,2.80
2022-11-26T00:07:57.293Z,2.28
2022-11-26T00:10:58.881Z,3.40
2022-11-26T00:14:00.159Z,2.38
2022-11-26T00:17:01.464Z,3.10
2022-11-26T00:20:02.814Z,3.05
2022-11-26T00:23:04.313Z,2.65
2022-11-26T00:26:12.126Z,3.78
2022-11-26T00:29:13.412Z,2.40
2022-11-26T00:32:18.885Z,3.25
2022-11-26T00:35:20.648Z,3.47
2022-11-26T00:38:22.516Z,2.97
2022-11-26T00:41:24.912Z,4.00
2022-11-26T00:44:26.294Z,3.20
2022-11-26T00:47:27.616Z,3.92
2022-11-26T00:50:31.832Z,4.82
2022-11-26T00:53:33.129Z,3.53
2022-11-26T00:56:38.016Z,2.85
2022-11-26T00:59:39.562Z,3.53
2022-11-26T01:02:40.854Z,2.60
2022-11-26T01:05:42.157Z,3.45
2022-11-26T01:08:43.977Z,4.38
2022-11-26T01:11:48.735Z,2.65
2022-11-26T01:14:52.344Z,2.47
2022-11-26T01:17:53.804Z,3.22
2022-11-26T01:20:55.081Z,2.85
2022-11-26T01:23:56.586Z,2.58
2022-11-26T01:26:57.831Z,3.10
2022-11-26T01:29:59.102Z,2.38
2022-11-26T01:33:01.103Z,2.72
2022-11-26T01:36:02.371Z,3.75
2022-11-26T01:39:03.655Z,3.05
2022-11-26T01:42:20.845Z,3.08
2022-11-26T01:45:23.481Z,2.72
2022-11-26T01:48:32.760Z,3.53
2022-11-26T01:51:34.009Z,3.53
2022-11-26T01:54:36.725Z,4.32
2022-11-26T01:57:38.729Z,3.17
2022-11-26T02:00:40.231Z,3.22
2022-11-26T02:04:07.835Z,2.55
2022-11-26T02:07:09.151Z,3.47
2022-11-26T02:10:10.536Z,3.80
2022-11-26T02:13:11.849Z,3.47
2022-11-26T02:16:36.590Z,3.63
2022-11-26T02:19:44.640Z,3.65
2022-11-26T02:22:48.905Z,3.20
2022-11-26T02:26:00.888Z,3.38
2022-11-26T02:29:15.555Z,2.70
2022-11-26T02:32:20.630Z,2.83
2022-11-26T02:35:24.726Z,3.78
2022-11-26T02:38:30.365Z,3.33
2022-11-26T02:41:40.709Z,2.75
2022-11-26T02:44:43.145Z,2.78
2022-11-26T02:47:46.012Z,3.47
2022-11-26T02:50:48.827Z,3.42
2022-11-26T02:53:50.897Z,3.28
2022-11-26T02:56:52.846Z,2.70
2022-11-26T02:59:54.165Z,3.30
2022-11-26T03:03:01.912Z,3.03
2022-11-26T03:06:06.458Z,2.40
2022-11-26T03:09:07.942Z,3.38
2022-11-26T03:12:09.253Z,3.67
2022-11-26T03:15:10.908Z,3.13
2022-11-26T03:18:12.227Z,2.97
2022-11-26T03:21:13.459Z,3.45
2022-11-26T03:24:14.755Z,3.97
2022-11-26T03:27:16.103Z,3.95
2022-11-26T03:30:17.470Z,3.10
2022-11-26T03:33:19.099Z,2.97
2022-11-26T03:36:20.395Z,2.92
2022-11-26T03:39:21.670Z,2.55
2022-11-26T03:42:22.973Z,3.35
2022-11-26T03:45:24.290Z,2.85
2022-11-26T03:48:25.570Z,2.60
2022-11-26T03:51:26.898Z,3.05
2022-11-26T03:54:28.201Z,4.03
2022-11-26T03:57:29.502Z,3.25
2022-11-26T04:00:30.789Z,5.07
2022-11-26T04:03:32.098Z,3.20
2022-11-26T04:06:33.445Z,3.38
2022-11-26T04:09:34.791Z,2.72
2022-11-26T04:12:36.305Z,3.50
2022-11-26T04:15:37.559Z,3.22
2022-11-26T04:18:38.883Z,4.00
2022-11-26T04:21:40.192Z,3.95
2022-11-26T04:24:41.527Z,2.88
2022-11-26T04:27:42.846Z,3.42
2022-11-26T04:30:44.213Z,3.58
2022-11-26T04:33:45.473Z,2.47
2022-11-26T04:36:46.747Z,3.10
2022-11-26T04:39:48.032Z,3.35
2022-11-26T04:42:49.309Z,2.33
2022-11-26T04:45:50.649Z,3.00
2022-11-26T04:48:51.960Z,3.13
2022-11-26T04:51:53.224Z,2.45
2022-11-26T04:54:54.723Z,2.17
2022-11-26T04:57:55.988Z,2.55
2022-11-26T05:00:57.332Z,2.08
2022-11-26T05:03:58.689Z,2.17
2022-11-26T05:06:59.939Z,2.60
2022-11-26T05:10:01.331Z,3.65
2022-11-26T05:13:02.667Z,2.72
2022-11-26T05:16:04.074Z,3.15
2022-11-26T05:19:05.368Z,2.08
2022-11-26T05:22:06.677Z,2.45
2022-11-26T05:25:08.159Z,2.45
2022-11-26T05:28:09.507Z,2.47
2022-11-26T05:31:11.898Z,2.65
2022-11-26T05:34:13.281Z,3.80
2022-11-26T05:37:14.600Z,2.47
2022-11-26T05:40:15.961Z,2.70
2022-11-26T05:43:17.248Z,2.50
2022-11-26T05:46:18.995Z,2.20
2022-11-26T05:49:20.325Z,2.92
2022-11-26T05:52:21.676Z,2.83
2022-11-26T05:55:22.957Z,2.65
2022-11-26T05:58:24.428Z,2.85
2022-11-26T06:01:25.775Z,2.75
2022-11-26T06:04:27.010Z,2.20
2022-11-26T06:07:28.500Z,3.40
2022-11-26T06:10:29.823Z,2.42
2022-11-26T06:13:31.076Z,3.10
2022-11-26T06:16:32.377Z,2.90
2022-11-26T06:19:33.718Z,2.70
2022-11-26T06:22:41.846Z,2.13
2022-11-26T06:25:43.115Z,2.20
2022-11-26T06:28:44.516Z,3.63
2022-11-26T06:31:45.904Z,2.97
2022-11-26T06:34:52.546Z,2.30
2022-11-26T06:37:55.619Z,2.22
2022-11-26T06:40:57.679Z,3.58
2022-11-26T06:43:59.694Z,2.88
2022-11-26T06:47:00.925Z,2.55
2022-11-26T06:50:05.211Z,3.25
2022-11-26T06:53:10.606Z,2.67
2022-11-26T06:56:18.110Z,3.10
2022-11-26T06:59:19.979Z,3.03
2022-11-26T07:02:21.369Z,3.00
2022-11-26T07:05:22.686Z,4.15
2022-11-26T07:08:23.955Z,4.32
2022-11-26T07:11:26.069Z,4.93
2022-11-26T07:14:27.495Z,4.63
2022-11-26T07:17:29.100Z,4.00
2022-11-26T07:20:30.437Z,3.13
2022-11-26T07:23:31.813Z,3.05
2022-11-26T07:26:33.072Z,3.50
2022-11-26T07:29:34.362Z,5.78
2022-11-26T07:32:35.660Z,5.10
2022-11-26T07:35:37.406Z,5.05
2022-11-26T07:38:38.683Z,5.25
2022-11-26T07:41:39.993Z,5.10
2022-11-26T07:44:41.353Z,5.22
2022-11-26T07:47:42.615Z,5.95
2022-11-26T07:50:44.788Z,4.07
2022-11-26T07:53:46.664Z,3.35
2022-11-26T07:56:48.393Z,3.83
2022-11-26T07:59:49.669Z,4.22
2022-11-26T08:02:51.022Z,5.18
2022-11-26T08:05:52.528Z,3.05
2022-11-26T08:08:53.861Z,3.03
2022-11-26T08:11:55.170Z,6.85
2022-11-26T08:14:56.406Z,2.65
2022-11-26T08:17:57.871Z,2.95
2022-11-26T08:20:59.276Z,2.67
2022-11-26T08:24:00.553Z,3.22
2022-11-26T08:27:01.820Z,3.38
2022-11-26T08:30:03.677Z,3.08
2022-11-26T08:33:04.968Z,3.95
2022-11-26T08:36:08.244Z,3.38
2022-11-26T08:39:14.352Z,4.10
2022-11-26T08:42:15.789Z,5.05
2022-11-26T08:45:17.027Z,3.70
2022-11-26T08:48:18.286Z,5.13
2022-11-26T08:51:19.578Z,3.78
2022-11-26T08:54:20.970Z,3.55
2022-11-26T08:57:22.190Z,3.30
2022-11-26T09:00:23.515Z,4.53
2022-11-26T09:03:24.910Z,3.30
2022-11-26T09:06:27.964Z,3.60
2022-11-26T09:09:30.512Z,3.83
2022-11-26T09:12:37.281Z,5.18
2022-11-26T09:15:38.974Z,4.47
2022-11-26T09:18:40.227Z,4.25
2022-11-26T09:21:41.488Z,3.53
2022-11-26T09:24:42.812Z,3.97
2022-11-26T09:27:44.060Z,3.67
2022-11-26T09:30:45.273Z,3.03
2022-11-26T09:33:46.725Z,3.13
2022-11-26T09:36:47.947Z,3.38
2022-11-26T09:39:49.755Z,2.35
2022-11-26T09:43:12.626Z,3.50
2022-11-26T09:46:14.392Z,4.22
2022-11-26T09:49:17.435Z,4.10
2022-11-26T09:52:21.036Z,3.42
2022-11-26T09:55:24.172Z,3.85
2022-11-26T09:58:45.360Z,4.50
2022-11-26T10:01:46.684Z,5.75
2022-11-26T10:04:48.304Z,4.13
2022-11-26T10:08:05.275Z,5.13
2022-11-26T10:11:12.568Z,5.03
2022-11-26T10:14:33.011Z,5.28
2022-11-26T10:17:37.188Z,3.42
2022-11-26T10:20:53.489Z,3.97
2022-11-26T10:23:57.802Z,5.70
2022-11-26T10:27:05.240Z,4.55
2022-11-26T10:30:16.458Z,5.32
2022-11-26T10:36:36.188Z,3.83
2022-11-26T10:39:37.478Z,3.67
2022-11-26T10:42:42.497Z,3.92
2022-11-26T10:45:45.695Z,4.20
2022-11-26T10:48:46.983Z,4.18
2022-11-26T10:51:49.417Z,3.03
2022-11-26T10:55:13.773Z,4.18
2022-11-26T10:58:16.948Z,4.18
2022-11-26T11:01:18.355Z,4.53
2022-11-26T11:04:26.015Z,3.40
2022-11-26T11:07:33.382Z,4.07
2022-11-26T11:10:35.587Z,4.05
2022-11-26T11:13:41.963Z,3.85
2022-11-26T11:16:44.107Z,3.25
2022-11-26T11:19:45.511Z,4.13
2022-11-26T11:22:46.971Z,4.13
2022-11-26T11:26:08.809Z,3.95
2022-11-26T11:29:28.773Z,4.78
2022-11-26T11:32:40.199Z,3.95
2022-11-26T11:35:41.456Z,4.63
2022-11-26T11:38:50.702Z,4.68
2022-11-26T11:41:52.046Z,4.63
2022-11-26T11:44:53.352Z,5.32
2022-11-26T11:47:57.468Z,5.97
2022-11-26T11:51:05.016Z,5.53
2022-11-26T11:54:20.161Z,5.03
2022-11-26T11:57:29.401Z,4.65
2022-11-26T12:00:38.436Z,5.55
2022-11-26T12:03:49.724Z,4.55
2022-11-26T12:06:50.966Z,4.20
2022-11-26T12:10:14.300Z,4.78
2022-11-26T12:13:16.688Z,4.68
2022-11-26T12:16:18.803Z,4.15
2022-11-26T12:19:29.530Z,4.65
2022-11-26T12:22:36.500Z,5.05
2022-11-26T12:25:38.055Z,4.80
2022-11-26T12:28:44.781Z,5.07
2022-11-26T12:31:55.099Z,6.30
2022-11-26T12:34:59.174Z,5.13
2022-11-26T12:38:11.497Z,5.00
2022-11-26T12:41:20.366Z,4.70
2022-11-26T12:44:31.657Z,5.15
2022-11-26T12:47:36.673Z,4.90
2022-11-26T12:50:50.796Z,5.03
2022-11-26T12:54:09.883Z,5.15
2022-11-26T12:57:14.239Z,5.53
2022-11-26T13:00:26.095Z,4.97
2022-11-26T13:03:32.151Z,5.57
2022-11-26T13:06:41.962Z,5.28
2022-11-26T13:09:43.284Z,5.10
2022-11-26T13:13:20.146Z,5.95
2022-11-26T13:16:40.112Z,5.03
2022-11-26T13:19:46.662Z,5.80
2022-11-26T13:23:03.923Z,5.28
2022-11-26T13:26:05.210Z,4.72
2022-11-26T13:29:18.006Z,6.72
2022-11-26T13:32:51.626Z,5.57
2022-11-26T13:36:12.202Z,5.35
2022-11-26T13:39:32.200Z,5.55
2022-11-26T13:42:57.657Z,4.47
2022-11-26T13:45:59.137Z,5.85
2022-11-26T13:49:06.615Z,6.00
2022-11-26T13:52:15.380Z,6.03
2022-11-26T13:55:22.661Z,4.80
2022-11-26T13:58:27.109Z,4.97
2022-11-26T14:01:28.562Z,5.70
2022-11-26T14:04:50.353Z,5.05
2022-11-26T14:08:11.602Z,5.95
2022-11-26T14:11:16.114Z,6.38
2022-11-26T14:14:24.263Z,6.10
2022-11-26T14:17:29.969Z,5.97
2022-11-26T14:20:52.429Z,5.78
2022-11-26T14:23:55.244Z,5.25
2022-11-26T14:26:56.618Z,5.38
2022-11-26T14:30:00.118Z,5.65
2022-11-26T14:33:08.315Z,5.07
2022-11-26T14:36:21.132Z,4.75
2022-11-26T14:39:22.477Z,5.45
2022-11-26T14:42:23.758Z,6.28
2022-11-26T14:45:25.102Z,5.03
2022-11-26T14:48:28.081Z,4.22
2022-11-26T14:51:29.396Z,4.63
2022-11-26T14:54:33.025Z,5.28
2022-11-26T14:57:40.215Z,3.95
2022-11-26T15:00:41.762Z,4.03
2022-11-26T15:03:53.001Z,4.22
2022-11-26T15:06:54.409Z,4.57
2022-11-26T15:10:03.946Z,4.20
2022-11-26T15:13:10.228Z,4.30
2022-11-26T15:16:43.861Z,6.03
2022-11-26T15:19:46.056Z,4.13
2022-11-26T15:22:51.958Z,4.90
2022-11-26T15:25:54.220Z,5.03
2022-11-26T15:28:55.488Z,5.07
2022-11-26T15:31:56.886Z,7.55
2022-11-26T15:35:00.110Z,6.70
2022-11-26T15:38:01.474Z,6.60
2022-11-26T15:41:06.904Z,5.88
2022-11-26T15:44:19.616Z,6.40
2022-11-26T15:47:22.557Z,5.15
2022-11-26T15:50:25.756Z,5.32
2022-11-26T15:53:37.993Z,6.22
2022-11-26T15:56:39.382Z,6.13
2022-11-26T15:59:48.690Z,4.68
2022-11-26T16:02:52.076Z,6.10
2022-11-26T16:05:55.027Z,5.20
2022-11-26T16:09:18.261Z,5.22
2022-11-26T16:12:29.155Z,5.95
2022-11-26T16:15:30.459Z,5.15
2022-11-26T16:18:39.869Z,4.22
2022-11-26T16:21:47.931Z,3.90
2022-11-26T16:25:18.632Z,3.80
2022-11-26T16:28:19.922Z,3.80
2022-11-26T16:31:21.913Z,4.95
2022-11-26T16:34:25.549Z,3.63
2022-11-26T16:37:31.438Z,5.13
2022-11-26T16:40:34.195Z,4.25
2022-11-26T16:43:35.438Z,5.32
2022-11-26T16:46:37.380Z,4.75
2022-11-26T16:49:38.689Z,3.95
2022-11-26T16:52:40.841Z,4.03
2022-11-26T16:55:42.155Z,4.93
2022-11-26T16:58:43.524Z,4.53
2022-11-26T17:01:45.189Z,6.78
2022-11-26T17:04:46.531Z,5.97
2022-11-26T17:07:48.983Z,5.18
2022-11-26T17:10:53.212Z,4.80
2022-11-26T17:13:54.502Z,5.22
2022-11-26T17:16:56.623Z,5.70
2022-11-26T17:19:57.957Z,4.82
2022-11-26T17:22:59.234Z,4.63
2022-11-26T17:26:01.050Z,5.25
2022-11-26T17:29:02.562Z,5.15
2022-11-26T17:32:05.030Z,5.18
2022-11-26T17:35:06.481Z,5.63
2022-11-26T17:38:13.868Z,5.05
2022-11-26T17:41:15.576Z,5.60
2022-11-26T17:44:16.832Z,4.80
2022-11-26T17:47:19.519Z,5.45
2022-11-26T17:50:22.734Z,4.75
2022-11-26T17:53:24.010Z,5.22
2022-11-26T17:56:26.959Z,5.03
2022-11-26T17:59:28.384Z,4.40
2022-11-26T18:02:29.722Z,4.22
2022-11-26T18:05:31.050Z,4.78
2022-11-26T18:08:32.335Z,5.20
2022-11-26T18:11:47.362Z,4.95
2022-11-26T18:14:48.694Z,4.47
2022-11-26T18:17:51.127Z,4.75
2022-11-26T18:20:52.444Z,4.25
2022-11-26T18:23:53.707Z,4.53
2022-11-26T18:26:56.702Z,5.13
2022-11-26T18:29:57.981Z,4.63
2022-11-26T18:32:59.241Z,6.07
2022-11-26T18:36:00.607Z,4.50
2022-11-26T18:39:02.873Z,5.00
2022-11-26T18:42:35.515Z,5.22
2022-11-26T18:45:25.775Z,4.93
2022-11-26T18:48:27.047Z,5.82
2022-11-26T18:51:28.391Z,5.25
2022-11-26T18:54:29.682Z,6.05
2022-11-26T18:57:31.017Z,6.50
2022-11-26T19:00:32.331Z,5.13
2022-11-26T19:03:38.707Z,4.05
2022-11-26T19:06:43.034Z,5.00
2022-11-26T19:09:44.303Z,5.80
2022-11-26T19:12:45.549Z,5.07
2022-11-26T19:15:46.916Z,3.95
2022-11-26T19:18:48.502Z,6.30
2022-11-26T19:21:50.249Z,6.20
2022-11-26T19:24:51.500Z,4.55
2022-11-26T19:27:52.809Z,4.53
2022-11-26T19:31:05.227Z,4.32
2022-11-26T19:34:09.874Z,4.20
2022-11-26T19:37:11.215Z,4.43
2022-11-26T19:40:12.836Z,4.00
2022-11-26T19:43:14.164Z,6.35
2022-11-26T19:46:17.036Z,4.95
2022-11-26T19:49:18.404Z,6.22
2022-11-26T19:52:19.649Z,4.85
2022-11-26T19:55:20.930Z,6.32
2022-11-26T19:58:22.182Z,4.82
2022-11-26T20:01:23.747Z,3.75
2022-11-26T20:04:27.595Z,5.55
2022-11-26T20:07:28.986Z,4.25
2022-11-26T20:10:30.352Z,5.70
2022-11-26T20:13:32.158Z,5.15
2022-11-26T20:16:33.521Z,3.70
2022-11-26T20:19:34.840Z,4.60
2022-11-26T20:22:37.475Z,4.53
2022-11-26T20:25:38.913Z,4.03
2022-11-26T20:28:40.194Z,4.45
2022-11-26T20:31:45.913Z,7.35
2022-11-26T20:34:47.231Z,4.22
2022-11-26T20:37:48.576Z,4.22
2022-11-26T20:40:49.834Z,3.88
2022-11-26T20:43:56.573Z,3.67
2022-11-26T20:46:59.721Z,4.97
2022-11-26T20:50:00.995Z,4.38
2022-11-26T20:53:02.317Z,4.25
2022-11-26T20:56:04.226Z,4.28
2022-11-26T20:59:07.210Z,5.80
2022-11-26T21:05:12.146Z,4.03
2022-11-26T21:08:13.748Z,3.63
2022-11-26T21:11:16.264Z,4.55
2022-11-26T21:14:17.538Z,4.45
2022-11-26T21:17:18.988Z,5.30
2022-11-26T21:20:20.717Z,5.05
2022-11-26T21:23:22.019Z,5.22
2022-11-26T21:26:24.283Z,5.85
2022-11-26T21:29:25.548Z,5.10
2022-11-26T21:32:27.089Z,6.28
2022-11-26T21:35:28.400Z,4.32
2022-11-26T21:38:29.691Z,4.05
2022-11-26T21:41:33.470Z,4.72
2022-11-26T21:44:34.915Z,6.05
2022-11-26T21:47:36.555Z,4.78
2022-11-26T21:50:37.866Z,5.15
2022-11-26T21:53:39.484Z,4.32
2022-11-26T21:56:40.998Z,4.95
2022-11-26T21:59:42.309Z,4.82
2022-11-26T22:02:43.759Z,5.25
2022-11-26T22:05:45.102Z,5.80
2022-11-26T22:08:49.442Z,4.43
2022-11-26T22:11:50.731Z,5.65
2022-11-26T22:14:52.105Z,5.70
2022-11-26T22:17:53.392Z,6.10
2022-11-26T22:20:54.788Z,6.05
2022-11-26T22:23:56.641Z,5.80
2022-11-26T22:26:59.288Z,5.47
2022-11-26T22:30:00.580Z,5.43
2022-11-26T22:33:03.595Z,4.57
2022-11-26T22:36:05.329Z,5.57
2022-11-26T22:39:10.519Z,6.20
2022-11-26T22:42:13.794Z,6.20
2022-11-26T22:45:15.183Z,5.03
2022-11-26T22:48:16.526Z,5.63
2022-11-26T22:51:17.810Z,6.60
2022-11-26T22:54:19.224Z,6.82
2022-11-26T22:57:25.124Z,5.60
2022-11-26T23:00:45.750Z,4.95
2022-11-26T23:03:47.112Z,4.97
2022-11-26T23:06:48.445Z,5.45
2022-11-26T23:09:51.031Z,5.95
2022-11-26T23:12:52.471Z,5.72
2022-11-26T23:15:53.778Z,5.30
2022-11-26T23:18:55.884Z,4.75
2022-11-26T23:21:57.152Z,6.35
2022-11-26T23:24:58.421Z,5.18
2022-11-26T23:27:59.685Z,5.93
2022-11-26T23:31:01.719Z,5.22
2022-11-26T23:34:03.358Z,5.03
2022-11-26T23:37:04.622Z,5.13
2022-11-26T23:40:07.018Z,5.65
2022-11-26T23:43:08.841Z,5.63
2022-11-26T23:46:13.041Z,4.38
2022-11-26T23:49:14.406Z,4.63
2022-11-26T23:52:15.664Z,5.15
2022-11-26T23:55:16.969Z,3.72
2022-11-26T23:58:18.223Z,4.65
